Pleasantville, IA

11:09 AM CST on February 08, 2016 (GMT -0600)
Rural Pleasantville | | Change Station
CLOSE
Current Station
Personal Weather Station
Location: Pleasantville, IA
Elevation: 843 ft
Nearby Weather Stations

Elev 843 ft 41.36 °N, 93.27 °W | Updated 11 minutes ago

Snow
Snow
17.8 °F
Feels Like 8 °F
N
7.8
Wind Variable Wind from WNW

Today
High -- | Low -- °F
--% Chance of Precip.
Yesterday
High -- | Low -- °F
Precip. -- in
Pressure 29.93 in
Visibility 9.0 miles
Clouds Mostly Cloudy 2200 ft
Mostly Cloudy 3000 ft
Mostly Cloudy 4700 ft
Windchill 8 °F
Dew Point 9 °F
Humidity 69%
Rainfall 0.00 in
Snow Depth Not available.
7:17 AM 5:37 PM
New Moon, 0% visible
METAR KOXV 081655Z AUTO 32028G33KT 9SM -SN BKN022 BKN030 BKN047 M08/M13 A2993 RMK AO2
Pressure 29.93 in
Visibility 9.0 miles
Clouds Mostly Cloudy 2200 ft
Mostly Cloudy 3000 ft
Mostly Cloudy 4700 ft
Windchill 8 °F
Dew Point 9 °F
Humidity 69%
Rainfall 0.00 in
Snow Depth Not available.
7:17 AM 5:37 PM
New Moon, 0% visible
METAR KOXV 081655Z AUTO 32028G33KT 9SM -SN BKN022 BKN030 BKN047 M08/M13 A2993 RMK AO2

10-Day Weather Forecast

Almanac

Astronomy

Feb. 08, 2016 Rise Set
Actual Time
Civil Twilight
Nautical Twilight
Astronomical Twilight
Moon
Length of Visible Light
Length of Day
Tomorrow will be .
, % of the Moon is Illuminated

Today's Extremes

State Highs State Lows

Community

WunderPhotos

Upload Photos

1,891,471 photos uploaded!

WunderBlog® & News

Nearby

Air Quality

  Air Quality AQ Index Pollutant
Not available.

Snow Depth

Station Depth Elevation

Earthquake Activity

City Distance Mag. Time & Date
Minimum magnitude displayed is 2.5.

Coastal Water Temperatures

Place Temperature

Stations

Nearby Weather Stations

Station Location Temp. Windchill Dew Point Humidity Wind Precip. Elev Updated Type
                   

Watches & Warnings

There are currently no watches in effect.